sensor_id;sensor_type;location;lat;lon;timestamp;P1;durP1;ratioP1;P2;durP2;ratioP2
18647;SDS011;9453;50.294;18.644;2023-05-10T04:01:57;11.50;;;4.10;;
18647;SDS011;9453;50.294;18.644;2023-05-10T04:04:24;8.10;;;4.00;;
18647;SDS011;9453;50.294;18.644;2023-05-10T04:06:51;8.43;;;3.87;;
18647;SDS011;9453;50.294;18.644;2023-05-10T04:09:18;8.23;;;3.87;;
18647;SDS011;9453;50.294;18.644;2023-05-10T04:11:45;7.60;;;3.87;;
18647;SDS011;9453;50.294;18.644;2023-05-10T04:14:12;6.63;;;4.17;;
18647;SDS011;9453;50.294;18.644;2023-05-10T04:16:39;7.40;;;3.77;;
18647;SDS011;9453;50.294;18.644;2023-05-10T04:19:08;6.70;;;3.60;;
18647;SDS011;9453;50.294;18.644;2023-05-10T04:21:35;12.97;;;4.20;;
18647;SDS011;9453;50.294;18.644;2023-05-10T04:24:03;8.80;;;3.83;;
18647;SDS011;9453;50.294;18.644;2023-05-10T04:26:30;9.27;;;3.63;;
18647;SDS011;9453;50.294;18.644;2023-05-10T04:28:57;9.60;;;3.90;;
18647;SDS011;9453;50.294;18.644;2023-05-10T04:31:24;9.20;;;3.97;;
18647;SDS011;9453;50.294;18.644;2023-05-10T04:33:52;8.97;;;4.10;;
18647;SDS011;9453;50.294;18.644;2023-05-10T04:36:21;11.63;;;4.43;;
18647;SDS011;9453;50.294;18.644;2023-05-10T04:38:48;9.50;;;4.70;;
18647;SDS011;9453;50.294;18.644;2023-05-10T04:41:14;10.13;;;4.30;;
18647;SDS011;9453;50.294;18.644;2023-05-10T04:43:41;8.97;;;5.00;;
18647;SDS011;9453;50.294;18.644;2023-05-10T04:46:08;12.30;;;4.30;;
18647;SDS011;9453;50.294;18.644;2023-05-10T04:48:35;9.27;;;4.27;;
18647;SDS011;9453;50.294;18.644;2023-05-10T04:51:03;9.43;;;4.60;;
18647;SDS011;9453;50.294;18.644;2023-05-10T04:53:33;7.33;;;3.40;;
18647;SDS011;9453;50.294;18.644;2023-05-10T04:56:00;10.67;;;4.70;;
18647;SDS011;9453;50.294;18.644;2023-05-10T04:58:27;9.80;;;4.43;;
18647;SDS011;9453;50.294;18.644;2023-05-10T05:00:54;10.13;;;4.37;;
18647;SDS011;9453;50.294;18.644;2023-05-10T05:03:40;7.00;;;3.90;;
18647;SDS011;9453;50.294;18.644;2023-05-10T05:06:08;8.43;;;3.90;;
18647;SDS011;9453;50.294;18.644;2023-05-10T05:08:37;6.40;;;3.70;;
18647;SDS011;9453;50.294;18.644;2023-05-10T05:11:04;7.73;;;3.43;;
18647;SDS011;9453;50.294;18.644;2023-05-10T05:13:32;11.57;;;4.03;;
18647;SDS011;9453;50.294;18.644;2023-05-10T05:16:00;6.93;;;3.50;;
18647;SDS011;9453;50.294;18.644;2023-05-10T05:18:28;8.43;;;3.70;;
18647;SDS011;9453;50.294;18.644;2023-05-10T05:20:55;8.13;;;3.60;;
18647;SDS011;9453;50.294;18.644;2023-05-10T05:23:22;10.67;;;4.33;;
18647;SDS011;9453;50.294;18.644;2023-05-10T05:25:52;8.70;;;3.97;;
18647;SDS011;9453;50.294;18.644;2023-05-10T05:28:19;11.30;;;4.13;;
18647;SDS011;9453;50.294;18.644;2023-05-10T05:30:47;6.30;;;3.53;;
18647;SDS011;9453;50.294;18.644;2023-05-10T05:33:13;6.73;;;3.50;;
18647;SDS011;9453;50.294;18.644;2023-05-10T05:35:41;9.13;;;3.70;;
18647;SDS011;9453;50.294;18.644;2023-05-10T05:38:12;6.20;;;3.03;;
18647;SDS011;9453;50.294;18.644;2023-05-10T05:40:39;6.13;;;2.87;;
18647;SDS011;9453;50.294;18.644;2023-05-10T05:43:08;9.47;;;3.43;;
18647;SDS011;9453;50.294;18.644;2023-05-10T05:45:35;7.20;;;3.40;;
18647;SDS011;9453;50.294;18.644;2023-05-10T05:48:02;9.80;;;3.33;;
18647;SDS011;9453;50.294;18.644;2023-05-10T05:50:29;7.53;;;3.67;;
18647;SDS011;9453;50.294;18.644;2023-05-10T05:52:56;5.90;;;3.47;;
18647;SDS011;9453;50.294;18.644;2023-05-10T05:55:23;12.50;;;3.73;;
18647;SDS011;9453;50.294;18.644;2023-05-10T05:57:50;12.10;;;3.63;;
18647;SDS011;9453;50.294;18.644;2023-05-10T06:00:19;5.87;;;3.10;;
18647;SDS011;9453;50.294;18.644;2023-05-10T06:02:46;10.60;;;3.37;;
18647;SDS011;9453;50.294;18.644;2023-05-10T06:05:13;7.97;;;3.37;;
18647;SDS011;9453;50.294;18.644;2023-05-10T06:07:40;5.97;;;3.10;;
18647;SDS011;9453;50.294;18.644;2023-05-10T06:10:08;7.40;;;2.97;;
18647;SDS011;9453;50.294;18.644;2023-05-10T06:12:35;5.63;;;2.87;;
18647;SDS011;9453;50.294;18.644;2023-05-10T06:15:02;12.83;;;3.47;;
18647;SDS011;9453;50.294;18.644;2023-05-10T06:17:31;7.03;;;3.07;;
18647;SDS011;9453;50.294;18.644;2023-05-10T06:19:58;5.97;;;3.10;;
18647;SDS011;9453;50.294;18.644;2023-05-10T06:22:25;5.87;;;2.97;;
18647;SDS011;9453;50.294;18.644;2023-05-10T06:24:52;4.30;;;2.63;;
18647;SDS011;9453;50.294;18.644;2023-05-10T06:27:20;8.43;;;3.07;;
18647;SDS011;9453;50.294;18.644;2023-05-10T06:29:47;8.50;;;3.10;;
18647;SDS011;9453;50.294;18.644;2023-05-10T06:32:14;7.25;;;3.40;;
18647;SDS011;9453;50.294;18.644;2023-05-10T06:34:42;9.50;;;3.80;;
18647;SDS011;9453;50.294;18.644;2023-05-10T06:37:09;9.70;;;3.50;;
18647;SDS011;9453;50.294;18.644;2023-05-10T06:39:36;6.83;;;3.07;;
18647;SDS011;9453;50.294;18.644;2023-05-10T06:42:03;10.18;;;3.30;;
18647;SDS011;9453;50.294;18.644;2023-05-10T06:44:30;6.88;;;3.22;;
18647;SDS011;9453;50.294;18.644;2023-05-10T06:46:58;7.15;;;3.10;;
18647;SDS011;9453;50.294;18.644;2023-05-10T06:49:25;10.02;;;3.28;;
18647;SDS011;9453;50.294;18.644;2023-05-10T06:51:54;9.57;;;3.33;;
18647;SDS011;9453;50.294;18.644;2023-05-10T06:54:22;6.70;;;3.13;;
18647;SDS011;9453;50.294;18.644;2023-05-10T06:56:49;12.02;;;3.47;;
18647;SDS011;9453;50.294;18.644;2023-05-10T06:59:16;5.70;;;2.55;;
18647;SDS011;9453;50.294;18.644;2023-05-10T07:01:44;4.00;;;2.40;;
18647;SDS011;9453;50.294;18.644;2023-05-10T07:04:11;7.50;;;2.63;;
18647;SDS011;9453;50.294;18.644;2023-05-10T07:06:38;8.07;;;2.67;;
18647;SDS011;9453;50.294;18.644;2023-05-10T07:09:07;5.88;;;2.65;;
18647;SDS011;9453;50.294;18.644;2023-05-10T07:11:34;4.20;;;2.40;;
18647;SDS011;9453;50.294;18.644;2023-05-10T07:14:02;7.90;;;2.45;;
18647;SDS011;9453;50.294;18.644;2023-05-10T07:16:29;7.38;;;2.28;;
18647;SDS011;9453;50.294;18.644;2023-05-10T07:18:56;10.57;;;2.55;;
18647;SDS011;9453;50.294;18.644;2023-05-10T07:21:23;6.22;;;2.78;;
18647;SDS011;9453;50.294;18.644;2023-05-10T07:23:53;4.65;;;2.13;;
18647;SDS011;9453;50.294;18.644;2023-05-10T07:26:21;5.85;;;2.80;;
18647;SDS011;9453;50.294;18.644;2023-05-10T07:28:49;6.20;;;3.00;;
18647;SDS011;9453;50.294;18.644;2023-05-10T07:31:16;3.75;;;2.20;;
18647;SDS011;9453;50.294;18.644;2023-05-10T07:33:43;4.47;;;2.45;;
18647;SDS011;9453;50.294;18.644;2023-05-10T07:36:10;4.35;;;2.20;;
18647;SDS011;9453;50.294;18.644;2023-05-10T07:38:38;5.15;;;2.22;;
18647;SDS011;9453;50.294;18.644;2023-05-10T07:41:05;3.97;;;2.03;;
18647;SDS011;9453;50.294;18.644;2023-05-10T07:43:34;4.68;;;1.92;;
18647;SDS011;9453;50.294;18.644;2023-05-10T07:46:01;11.60;;;2.45;;
18647;SDS011;9453;50.294;18.644;2023-05-10T07:48:28;4.43;;;2.45;;
18647;SDS011;9453;50.294;18.644;2023-05-10T07:50:57;5.82;;;1.95;;
18647;SDS011;9453;50.294;18.644;2023-05-10T07:53:25;3.72;;;2.10;;
18647;SDS011;9453;50.294;18.644;2023-05-10T07:55:53;6.68;;;2.30;;
18647;SDS011;9453;50.294;18.644;2023-05-10T07:58:23;3.22;;;1.75;;
18647;SDS011;9453;50.294;18.644;2023-05-10T08:00:52;4.45;;;2.33;;
18647;SDS011;9453;50.294;18.644;2023-05-10T08:03:19;6.55;;;2.17;;
18647;SDS011;9453;50.294;18.644;2023-05-10T08:05:46;7.88;;;2.38;;
18647;SDS011;9453;50.294;18.644;2023-05-10T08:08:13;4.82;;;2.58;;
18647;SDS011;9453;50.294;18.644;2023-05-10T08:10:40;4.38;;;2.10;;
18647;SDS011;9453;50.294;18.644;2023-05-10T08:13:07;4.00;;;2.08;;
18647;SDS011;9453;50.294;18.644;2023-05-10T08:15:36;4.93;;;2.22;;
18647;SDS011;9453;50.294;18.644;2023-05-10T08:18:04;5.05;;;2.35;;
18647;SDS011;9453;50.294;18.644;2023-05-10T08:20:32;5.88;;;2.05;;
18647;SDS011;9453;50.294;18.644;2023-05-10T08:22:59;4.15;;;1.85;;
18647;SDS011;9453;50.294;18.644;2023-05-10T08:25:26;5.47;;;1.98;;
18647;SDS011;9453;50.294;18.644;2023-05-10T08:27:53;2.88;;;1.80;;
18647;SDS011;9453;50.294;18.644;2023-05-10T08:30:20;3.13;;;1.80;;
18647;SDS011;9453;50.294;18.644;2023-05-10T08:32:47;5.28;;;1.95;;
18647;SDS011;9453;50.294;18.644;2023-05-10T08:35:16;3.90;;;2.10;;
18647;SDS011;9453;50.294;18.644;2023-05-10T08:37:43;4.75;;;1.95;;
18647;SDS011;9453;50.294;18.644;2023-05-10T08:40:11;4.90;;;2.40;;
18647;SDS011;9453;50.294;18.644;2023-05-10T08:42:39;6.97;;;1.83;;
18647;SDS011;9453;50.294;18.644;2023-05-10T08:45:09;5.95;;;2.03;;
18647;SDS011;9453;50.294;18.644;2023-05-10T08:47:36;7.50;;;2.25;;
18647;SDS011;9453;50.294;18.644;2023-05-10T08:50:05;5.10;;;2.10;;
18647;SDS011;9453;50.294;18.644;2023-05-10T08:52:35;3.88;;;1.80;;
18647;SDS011;9453;50.294;18.644;2023-05-10T08:55:05;3.25;;;1.80;;
18647;SDS011;9453;50.294;18.644;2023-05-10T08:57:33;3.38;;;1.67;;
18647;SDS011;9453;50.294;18.644;2023-05-10T09:00:02;5.30;;;2.05;;
18647;SDS011;9453;50.294;18.644;2023-05-10T09:02:29;3.15;;;1.60;;
18647;SDS011;9453;50.294;18.644;2023-05-10T09:04:56;4.10;;;2.10;;
18647;SDS011;9453;50.294;18.644;2023-05-10T09:07:23;4.78;;;1.90;;
18647;SDS011;9453;50.294;18.644;2023-05-10T09:09:52;5.88;;;2.20;;
18647;SDS011;9453;50.294;18.644;2023-05-10T09:12:20;4.22;;;1.90;;
18647;SDS011;9453;50.294;18.644;2023-05-10T09:14:47;9.32;;;2.70;;
18647;SDS011;9453;50.294;18.644;2023-05-10T09:17:16;4.95;;;2.20;;
18647;SDS011;9453;50.294;18.644;2023-05-10T09:19:44;7.45;;;2.10;;
18647;SDS011;9453;50.294;18.644;2023-05-10T09:22:11;3.90;;;2.08;;
18647;SDS011;9453;50.294;18.644;2023-05-10T09:24:39;4.18;;;1.83;;
18647;SDS011;9453;50.294;18.644;2023-05-10T09:27:11;5.25;;;2.10;;
18647;SDS011;9453;50.294;18.644;2023-05-10T09:29:38;4.63;;;1.83;;
18647;SDS011;9453;50.294;18.644;2023-05-10T09:32:06;4.03;;;1.80;;
18647;SDS011;9453;50.294;18.644;2023-05-10T09:34:33;4.30;;;1.85;;
18647;SDS011;9453;50.294;18.644;2023-05-10T09:37:04;4.55;;;1.90;;
18647;SDS011;9453;50.294;18.644;2023-05-10T09:39:33;3.15;;;1.95;;
18647;SDS011;9453;50.294;18.644;2023-05-10T09:42:02;5.13;;;1.80;;
18647;SDS011;9453;50.294;18.644;2023-05-10T09:44:32;6.70;;;2.45;;
18647;SDS011;9453;50.294;18.644;2023-05-10T09:46:59;5.05;;;2.13;;
18647;SDS011;9453;50.294;18.644;2023-05-10T09:49:26;3.45;;;2.17;;
18647;SDS011;9453;50.294;18.644;2023-05-10T09:51:59;10.80;;;2.00;;
18647;SDS011;9453;50.294;18.644;2023-05-10T09:54:27;2.60;;;1.77;;
18647;SDS011;9453;50.294;18.644;2023-05-10T09:56:54;3.35;;;2.00;;
18647;SDS011;9453;50.294;18.644;2023-05-10T09:59:21;3.95;;;1.60;;
18647;SDS011;9453;50.294;18.644;2023-05-10T10:01:53;5.10;;;2.20;;
18647;SDS011;9453;50.294;18.644;2023-05-10T10:04:22;3.60;;;1.95;;
18647;SDS011;9453;50.294;18.644;2023-05-10T10:06:58;3.67;;;1.67;;
18647;SDS011;9453;50.294;18.644;2023-05-10T10:09:25;2.75;;;1.67;;
18647;SDS011;9453;50.294;18.644;2023-05-10T10:11:53;4.53;;;2.05;;
18647;SDS011;9453;50.294;18.644;2023-05-10T10:14:21;3.92;;;2.30;;
18647;SDS011;9453;50.294;18.644;2023-05-10T10:16:48;5.68;;;1.85;;
18647;SDS011;9453;50.294;18.644;2023-05-10T10:19:17;3.28;;;2.00;;
18647;SDS011;9453;50.294;18.644;2023-05-10T10:21:45;7.32;;;1.98;;
18647;SDS011;9453;50.294;18.644;2023-05-10T10:24:12;9.73;;;2.10;;
18647;SDS011;9453;50.294;18.644;2023-05-10T10:26:39;3.35;;;1.80;;
18647;SDS011;9453;50.294;18.644;2023-05-10T10:29:10;3.05;;;1.58;;
18647;SDS011;9453;50.294;18.644;2023-05-10T10:31:45;4.20;;;2.17;;
18647;SDS011;9453;50.294;18.644;2023-05-10T10:34:21;3.13;;;1.70;;
18647;SDS011;9453;50.294;18.644;2023-05-10T10:36:53;6.40;;;1.58;;
18647;SDS011;9453;50.294;18.644;2023-05-10T10:39:21;4.10;;;1.95;;
18647;SDS011;9453;50.294;18.644;2023-05-10T10:41:50;2.53;;;1.40;;
18647;SDS011;9453;50.294;18.644;2023-05-10T10:44:26;3.15;;;1.70;;
18647;SDS011;9453;50.294;18.644;2023-05-10T10:47:00;4.20;;;1.95;;
18647;SDS011;9453;50.294;18.644;2023-05-10T10:49:32;3.95;;;2.00;;
18647;SDS011;9453;50.294;18.644;2023-05-10T10:52:13;4.03;;;1.50;;
18647;SDS011;9453;50.294;18.644;2023-05-10T10:54:54;3.72;;;1.88;;
18647;SDS011;9453;50.294;18.644;2023-05-10T10:57:24;4.95;;;2.30;;
18647;SDS011;9453;50.294;18.644;2023-05-10T10:59:54;5.00;;;2.05;;
18647;SDS011;9453;50.294;18.644;2023-05-10T11:02:45;4.85;;;1.67;;
18647;SDS011;9453;50.294;18.644;2023-05-10T11:08:16;2.28;;;1.70;;
18647;SDS011;9453;50.294;18.644;2023-05-10T11:10:51;2.92;;;1.35;;
18647;SDS011;9453;50.294;18.644;2023-05-10T11:13:28;4.95;;;1.70;;
18647;SDS011;9453;50.294;18.644;2023-05-10T11:15:56;6.80;;;1.90;;
18647;SDS011;9453;50.294;18.644;2023-05-10T11:18:25;5.28;;;1.77;;
18647;SDS011;9453;50.294;18.644;2023-05-10T11:20:56;7.57;;;2.08;;
18647;SDS011;9453;50.294;18.644;2023-05-10T11:23:29;5.70;;;1.98;;
18647;SDS011;9453;50.294;18.644;2023-05-10T11:25:57;3.22;;;1.70;;
18647;SDS011;9453;50.294;18.644;2023-05-10T11:28:25;3.38;;;1.75;;
18647;SDS011;9453;50.294;18.644;2023-05-10T11:30:53;3.10;;;1.83;;
18647;SDS011;9453;50.294;18.644;2023-05-10T11:33:21;4.15;;;2.10;;
18647;SDS011;9453;50.294;18.644;2023-05-10T11:35:48;6.15;;;1.88;;
18647;SDS011;9453;50.294;18.644;2023-05-10T11:38:17;3.67;;;1.83;;
18647;SDS011;9453;50.294;18.644;2023-05-10T11:40:44;5.75;;;1.77;;
18647;SDS011;9453;50.294;18.644;2023-05-10T11:43:11;4.38;;;1.92;;
18647;SDS011;9453;50.294;18.644;2023-05-10T11:45:39;6.30;;;2.20;;
18647;SDS011;9453;50.294;18.644;2023-05-10T11:48:07;3.20;;;1.98;;
18647;SDS011;9453;50.294;18.644;2023-05-10T11:50:34;3.70;;;1.92;;
18647;SDS011;9453;50.294;18.644;2023-05-10T11:53:01;3.95;;;1.90;;
18647;SDS011;9453;50.294;18.644;2023-05-10T11:55:30;3.15;;;1.40;;
18647;SDS011;9453;50.294;18.644;2023-05-10T11:58:00;2.88;;;1.90;;
18647;SDS011;9453;50.294;18.644;2023-05-10T12:00:29;5.47;;;2.08;;
18647;SDS011;9453;50.294;18.644;2023-05-10T12:02:57;2.65;;;1.92;;
18647;SDS011;9453;50.294;18.644;2023-05-10T12:05:24;4.03;;;1.77;;
18647;SDS011;9453;50.294;18.644;2023-05-10T12:07:51;5.70;;;2.03;;
18647;SDS011;9453;50.294;18.644;2023-05-10T12:10:26;3.67;;;1.80;;
18647;SDS011;9453;50.294;18.644;2023-05-10T12:12:54;3.42;;;1.73;;
18647;SDS011;9453;50.294;18.644;2023-05-10T12:15:23;3.28;;;1.67;;
18647;SDS011;9453;50.294;18.644;2023-05-10T12:17:50;5.03;;;1.90;;
18647;SDS011;9453;50.294;18.644;2023-05-10T12:20:18;4.28;;;2.00;;
18647;SDS011;9453;50.294;18.644;2023-05-10T12:22:47;4.80;;;2.13;;
18647;SDS011;9453;50.294;18.644;2023-05-10T12:25:18;3.50;;;1.80;;
18647;SDS011;9453;50.294;18.644;2023-05-10T12:27:50;4.80;;;1.95;;
18647;SDS011;9453;50.294;18.644;2023-05-10T12:30:23;2.28;;;1.58;;
18647;SDS011;9453;50.294;18.644;2023-05-10T12:32:51;5.07;;;1.80;;
18647;SDS011;9453;50.294;18.644;2023-05-10T12:35:18;3.00;;;1.80;;
18647;SDS011;9453;50.294;18.644;2023-05-10T12:37:48;2.10;;;1.48;;
18647;SDS011;9453;50.294;18.644;2023-05-10T12:40:16;4.50;;;1.80;;
18647;SDS011;9453;50.294;18.644;2023-05-10T12:42:43;6.70;;;2.10;;
18647;SDS011;9453;50.294;18.644;2023-05-10T12:45:11;4.25;;;1.60;;
18647;SDS011;9453;50.294;18.644;2023-05-10T12:47:39;4.30;;;1.88;;
18647;SDS011;9453;50.294;18.644;2023-05-10T12:50:07;4.97;;;1.55;;
18647;SDS011;9453;50.294;18.644;2023-05-10T12:52:34;3.78;;;1.98;;
18647;SDS011;9453;50.294;18.644;2023-05-10T12:55:02;3.03;;;1.60;;
18647;SDS011;9453;50.294;18.644;2023-05-10T12:57:29;5.20;;;2.10;;
18647;SDS011;9453;50.294;18.644;2023-05-10T12:59:56;2.95;;;1.48;;
18647;SDS011;9453;50.294;18.644;2023-05-10T13:02:23;2.63;;;1.60;;
18647;SDS011;9453;50.294;18.644;2023-05-10T13:04:52;7.47;;;2.03;;
18647;SDS011;9453;50.294;18.644;2023-05-10T13:07:19;5.32;;;1.88;;
18647;SDS011;9453;50.294;18.644;2023-05-10T13:09:46;8.90;;;1.90;;
18647;SDS011;9453;50.294;18.644;2023-05-10T13:12:13;3.72;;;1.48;;
18647;SDS011;9453;50.294;18.644;2023-05-10T13:14:40;2.33;;;1.35;;
18647;SDS011;9453;50.294;18.644;2023-05-10T13:17:07;3.38;;;1.95;;
18647;SDS011;9453;50.294;18.644;2023-05-10T13:19:34;3.92;;;1.80;;
18647;SDS011;9453;50.294;18.644;2023-05-10T13:22:03;4.97;;;1.83;;
18647;SDS011;9453;50.294;18.644;2023-05-10T13:24:30;2.92;;;2.08;;
18647;SDS011;9453;50.294;18.644;2023-05-10T13:26:57;4.03;;;1.48;;
18647;SDS011;9453;50.294;18.644;2023-05-10T13:29:24;3.10;;;1.58;;
18647;SDS011;9453;50.294;18.644;2023-05-10T13:31:51;2.97;;;1.67;;
18647;SDS011;9453;50.294;18.644;2023-05-10T13:34:18;3.75;;;1.40;;
18647;SDS011;9453;50.294;18.644;2023-05-10T13:36:46;5.53;;;1.63;;
18647;SDS011;9453;50.294;18.644;2023-05-10T13:39:15;2.10;;;1.60;;
18647;SDS011;9453;50.294;18.644;2023-05-10T13:41:42;3.15;;;1.60;;
18647;SDS011;9453;50.294;18.644;2023-05-10T13:44:11;2.08;;;1.52;;
18647;SDS011;9453;50.294;18.644;2023-05-10T13:46:40;2.90;;;1.90;;
18647;SDS011;9453;50.294;18.644;2023-05-10T13:49:10;3.15;;;1.70;;
18647;SDS011;9453;50.294;18.644;2023-05-10T13:51:46;6.32;;;2.75;;
18647;SDS011;9453;50.294;18.644;2023-05-10T13:54:14;6.00;;;2.90;;
18647;SDS011;9453;50.294;18.644;2023-05-10T13:56:44;3.85;;;2.35;;
18647;SDS011;9453;50.294;18.644;2023-05-10T13:59:12;2.28;;;1.58;;
18647;SDS011;9453;50.294;18.644;2023-05-10T14:01:40;4.07;;;1.95;;
18647;SDS011;9453;50.294;18.644;2023-05-10T14:04:07;2.38;;;1.90;;
18647;SDS011;9453;50.294;18.644;2023-05-10T14:06:35;4.45;;;1.85;;
18647;SDS011;9453;50.294;18.644;2023-05-10T14:09:02;3.25;;;1.52;;
18647;SDS011;9453;50.294;18.644;2023-05-10T14:11:31;2.20;;;1.50;;
18647;SDS011;9453;50.294;18.644;2023-05-10T14:13:58;2.90;;;1.65;;
18647;SDS011;9453;50.294;18.644;2023-05-10T14:16:25;2.10;;;1.45;;
18647;SDS011;9453;50.294;18.644;2023-05-10T14:18:52;2.85;;;1.67;;
18647;SDS011;9453;50.294;18.644;2023-05-10T14:21:19;4.68;;;1.77;;
18647;SDS011;9453;50.294;18.644;2023-05-10T14:23:46;2.53;;;1.60;;
18647;SDS011;9453;50.294;18.644;2023-05-10T14:26:13;4.15;;;1.90;;
18647;SDS011;9453;50.294;18.644;2023-05-10T14:28:41;3.85;;;1.60;;
18647;SDS011;9453;50.294;18.644;2023-05-10T14:31:08;2.50;;;1.80;;
18647;SDS011;9453;50.294;18.644;2023-05-10T14:33:35;2.28;;;1.67;;
18647;SDS011;9453;50.294;18.644;2023-05-10T14:36:02;5.35;;;1.58;;
18647;SDS011;9453;50.294;18.644;2023-05-10T14:38:29;2.90;;;1.73;;
18647;SDS011;9453;50.294;18.644;2023-05-10T14:40:57;5.07;;;1.83;;
18647;SDS011;9453;50.294;18.644;2023-05-10T14:43:24;5.47;;;2.00;;
18647;SDS011;9453;50.294;18.644;2023-05-10T14:45:54;2.90;;;1.30;;
18647;SDS011;9453;50.294;18.644;2023-05-10T14:48:21;2.58;;;1.40;;
18647;SDS011;9453;50.294;18.644;2023-05-10T14:50:48;3.00;;;1.70;;
18647;SDS011;9453;50.294;18.644;2023-05-10T14:53:15;4.30;;;1.88;;
18647;SDS011;9453;50.294;18.644;2023-05-10T14:55:43;2.00;;;1.50;;
18647;SDS011;9453;50.294;18.644;2023-05-10T14:58:09;4.60;;;1.60;;
18647;SDS011;9453;50.294;18.644;2023-05-10T15:00:36;5.45;;;2.47;;
18647;SDS011;9453;50.294;18.644;2023-05-10T15:03:05;7.20;;;1.75;;
18647;SDS011;9453;50.294;18.644;2023-05-10T15:05:32;5.43;;;1.73;;
18647;SDS011;9453;50.294;18.644;2023-05-10T15:07:59;5.68;;;2.00;;
18647;SDS011;9453;50.294;18.644;2023-05-10T15:10:26;4.32;;;1.60;;
18647;SDS011;9453;50.294;18.644;2023-05-10T15:12:53;5.30;;;1.77;;
18647;SDS011;9453;50.294;18.644;2023-05-10T15:15:20;3.97;;;1.65;;
18647;SDS011;9453;50.294;18.644;2023-05-10T15:17:55;2.25;;;1.50;;
18647;SDS011;9453;50.294;18.644;2023-05-10T15:20:24;3.33;;;1.80;;
18647;SDS011;9453;50.294;18.644;2023-05-10T15:22:52;4.25;;;1.80;;
18647;SDS011;9453;50.294;18.644;2023-05-10T15:25:19;3.97;;;1.60;;
18647;SDS011;9453;50.294;18.644;2023-05-10T15:27:46;3.63;;;1.63;;
18647;SDS011;9453;50.294;18.644;2023-05-10T15:30:13;4.10;;;1.67;;
18647;SDS011;9453;50.294;18.644;2023-05-10T15:32:40;3.63;;;1.83;;
18647;SDS011;9453;50.294;18.644;2023-05-10T15:35:08;4.32;;;1.42;;
18647;SDS011;9453;50.294;18.644;2023-05-10T15:37:36;5.82;;;2.20;;
18647;SDS011;9453;50.294;18.644;2023-05-10T15:40:04;5.30;;;1.52;;
18647;SDS011;9453;50.294;18.644;2023-05-10T15:42:32;3.42;;;1.83;;
18647;SDS011;9453;50.294;18.644;2023-05-10T15:44:59;4.40;;;2.00;;
18647;SDS011;9453;50.294;18.644;2023-05-10T15:47:26;3.95;;;1.70;;
18647;SDS011;9453;50.294;18.644;2023-05-10T15:49:53;7.70;;;2.10;;
18647;SDS011;9453;50.294;18.644;2023-05-10T15:52:20;5.25;;;2.00;;
18647;SDS011;9453;50.294;18.644;2023-05-10T15:54:49;2.53;;;1.88;;
18647;SDS011;9453;50.294;18.644;2023-05-10T15:57:16;4.60;;;1.63;;
18647;SDS011;9453;50.294;18.644;2023-05-10T15:59:43;3.13;;;1.92;;
18647;SDS011;9453;50.294;18.644;2023-05-10T16:02:10;3.50;;;1.98;;
18647;SDS011;9453;50.294;18.644;2023-05-10T16:04:37;5.28;;;3.50;;
18647;SDS011;9453;50.294;18.644;2023-05-10T16:07:09;9.18;;;5.15;;
18647;SDS011;9453;50.294;18.644;2023-05-10T16:09:36;7.85;;;4.30;;
18647;SDS011;9453;50.294;18.644;2023-05-10T16:12:04;6.68;;;3.42;;
18647;SDS011;9453;50.294;18.644;2023-05-10T16:14:32;4.80;;;2.50;;
18647;SDS011;9453;50.294;18.644;2023-05-10T16:16:59;3.95;;;2.28;;
18647;SDS011;9453;50.294;18.644;2023-05-10T16:19:28;5.18;;;2.50;;
18647;SDS011;9453;50.294;18.644;2023-05-10T16:21:55;4.10;;;2.13;;
18647;SDS011;9453;50.294;18.644;2023-05-10T16:24:22;5.10;;;2.13;;
18647;SDS011;9453;50.294;18.644;2023-05-10T16:26:49;10.85;;;1.98;;
18647;SDS011;9453;50.294;18.644;2023-05-10T16:29:17;3.42;;;2.03;;
18647;SDS011;9453;50.294;18.644;2023-05-10T16:31:44;2.67;;;1.60;;
18647;SDS011;9453;50.294;18.644;2023-05-10T16:34:11;3.13;;;1.70;;
18647;SDS011;9453;50.294;18.644;2023-05-10T16:36:38;2.20;;;1.30;;
18647;SDS011;9453;50.294;18.644;2023-05-10T16:39:05;1.92;;;1.27;;
18647;SDS011;9453;50.294;18.644;2023-05-10T16:41:33;2.78;;;1.63;;
18647;SDS011;9453;50.294;18.644;2023-05-10T16:44:00;2.75;;;1.58;;
18647;SDS011;9453;50.294;18.644;2023-05-10T16:46:29;1.55;;;1.27;;
18647;SDS011;9453;50.294;18.644;2023-05-10T16:48:57;2.67;;;1.10;;
18647;SDS011;9453;50.294;18.644;2023-05-10T16:51:24;3.40;;;1.70;;
18647;SDS011;9453;50.294;18.644;2023-05-10T16:53:51;4.20;;;1.58;;
18647;SDS011;9453;50.294;18.644;2023-05-10T16:56:18;3.15;;;1.70;;
18647;SDS011;9453;50.294;18.644;2023-05-10T16:58:47;2.58;;;1.48;;
18647;SDS011;9453;50.294;18.644;2023-05-10T17:01:14;3.53;;;1.45;;
18647;SDS011;9453;50.294;18.644;2023-05-10T17:03:42;2.92;;;1.75;;
18647;SDS011;9453;50.294;18.644;2023-05-10T17:06:09;4.82;;;1.90;;
18647;SDS011;9453;50.294;18.644;2023-05-10T17:08:38;4.85;;;1.85;;
18647;SDS011;9453;50.294;18.644;2023-05-10T17:11:04;2.45;;;1.75;;
18647;SDS011;9453;50.294;18.644;2023-05-10T17:13:31;2.90;;;1.80;;
18647;SDS011;9453;50.294;18.644;2023-05-10T17:15:59;2.63;;;1.98;;
18647;SDS011;9453;50.294;18.644;2023-05-10T17:18:28;2.50;;;1.70;;
18647;SDS011;9453;50.294;18.644;2023-05-10T17:20:56;3.33;;;1.73;;
18647;SDS011;9453;50.294;18.644;2023-05-10T17:23:23;4.50;;;1.58;;
18647;SDS011;9453;50.294;18.644;2023-05-10T17:25:50;2.88;;;1.75;;
18647;SDS011;9453;50.294;18.644;2023-05-10T17:28:17;3.78;;;1.70;;
18647;SDS011;9453;50.294;18.644;2023-05-10T17:30:44;2.05;;;1.48;;
18647;SDS011;9453;50.294;18.644;2023-05-10T17:33:10;4.93;;;1.60;;
18647;SDS011;9453;50.294;18.644;2023-05-10T17:35:37;3.25;;;2.08;;
18647;SDS011;9453;50.294;18.644;2023-05-10T17:38:06;2.80;;;1.45;;
18647;SDS011;9453;50.294;18.644;2023-05-10T17:40:33;3.30;;;1.75;;
18647;SDS011;9453;50.294;18.644;2023-05-10T17:42:59;3.17;;;1.70;;
18647;SDS011;9453;50.294;18.644;2023-05-10T17:45:30;3.85;;;1.80;;
18647;SDS011;9453;50.294;18.644;2023-05-10T17:47:57;3.00;;;2.03;;
18647;SDS011;9453;50.294;18.644;2023-05-10T17:50:23;3.20;;;1.73;;
18647;SDS011;9453;50.294;18.644;2023-05-10T17:52:51;4.05;;;2.00;;
18647;SDS011;9453;50.294;18.644;2023-05-10T17:55:19;3.35;;;1.90;;
18647;SDS011;9453;50.294;18.644;2023-05-10T17:57:47;3.95;;;2.30;;
18647;SDS011;9453;50.294;18.644;2023-05-10T18:00:14;3.25;;;1.80;;
18647;SDS011;9453;50.294;18.644;2023-05-10T18:02:41;4.47;;;2.03;;
18647;SDS011;9453;50.294;18.644;2023-05-10T18:05:08;3.42;;;2.30;;
18647;SDS011;9453;50.294;18.644;2023-05-10T18:07:36;2.70;;;1.80;;
18647;SDS011;9453;50.294;18.644;2023-05-10T18:10:04;3.47;;;2.08;;
18647;SDS011;9453;50.294;18.644;2023-05-10T18:12:34;3.72;;;1.90;;
18647;SDS011;9453;50.294;18.644;2023-05-10T18:15:24;3.85;;;2.08;;
18647;SDS011;9453;50.294;18.644;2023-05-10T18:17:52;3.83;;;2.25;;
18647;SDS011;9453;50.294;18.644;2023-05-10T18:20:19;5.35;;;2.10;;
18647;SDS011;9453;50.294;18.644;2023-05-10T18:22:47;7.03;;;2.90;;
18647;SDS011;9453;50.294;18.644;2023-05-10T18:25:14;4.65;;;2.50;;
18647;SDS011;9453;50.294;18.644;2023-05-10T18:27:43;5.78;;;2.58;;
18647;SDS011;9453;50.294;18.644;2023-05-10T18:30:10;6.90;;;2.95;;
18647;SDS011;9453;50.294;18.644;2023-05-10T18:32:38;7.57;;;3.25;;
18647;SDS011;9453;50.294;18.644;2023-05-10T18:35:06;6.07;;;3.28;;
18647;SDS011;9453;50.294;18.644;2023-05-10T18:37:35;5.65;;;3.05;;
18647;SDS011;9453;50.294;18.644;2023-05-10T18:40:02;5.88;;;2.80;;
18647;SDS011;9453;50.294;18.644;2023-05-10T18:42:30;6.70;;;2.90;;
18647;SDS011;9453;50.294;18.644;2023-05-10T18:44:59;5.70;;;2.55;;
18647;SDS011;9453;50.294;18.644;2023-05-10T18:47:26;8.68;;;2.67;;
18647;SDS011;9453;50.294;18.644;2023-05-10T18:49:53;4.60;;;2.22;;
18647;SDS011;9453;50.294;18.644;2023-05-10T18:52:20;7.10;;;3.05;;
18647;SDS011;9453;50.294;18.644;2023-05-10T18:54:47;6.18;;;2.58;;
18647;SDS011;9453;50.294;18.644;2023-05-10T18:57:15;5.78;;;3.13;;